createdAt,value
2023-12-14T00:00:52.354Z,12.10
2023-12-14T00:01:54.603Z,13.82
2023-12-14T00:02:56.830Z,10.70
2023-12-14T00:03:59.127Z,10.68
2023-12-14T00:05:01.429Z,8.05
2023-12-14T00:06:04.003Z,8.35
2023-12-14T00:07:06.535Z,8.88
2023-12-14T00:08:08.815Z,8.50
2023-12-14T00:09:11.018Z,11.60
2023-12-14T00:10:13.429Z,10.23
2023-12-14T00:11:15.675Z,8.95
2023-12-14T00:12:17.975Z,8.23
2023-12-14T00:13:20.243Z,8.05
2023-12-14T00:14:22.460Z,11.40
2023-12-14T00:15:24.660Z,8.60
2023-12-14T00:16:26.885Z,8.38
2023-12-14T00:17:29.201Z,8.77
2023-12-14T00:18:31.586Z,7.75
2023-12-14T00:19:33.891Z,11.25
2023-12-14T00:20:36.106Z,8.32
2023-12-14T00:21:38.267Z,9.10
2023-12-14T00:22:40.991Z,7.82
2023-12-14T00:23:43.194Z,7.70
2023-12-14T00:24:45.480Z,9.23
2023-12-14T00:25:47.825Z,8.60
2023-12-14T00:26:50.166Z,12.52
2023-12-14T00:27:52.448Z,9.73
2023-12-14T00:29:01.004Z,10.55
2023-12-14T00:30:04.728Z,8.50
2023-12-14T00:31:07.442Z,9.25
2023-12-14T00:32:09.768Z,8.60
2023-12-14T00:33:12.141Z,7.28
2023-12-14T00:34:14.421Z,9.82
2023-12-14T00:35:16.787Z,8.55
2023-12-14T00:36:20.127Z,8.40
2023-12-14T00:37:22.870Z,8.00
2023-12-14T00:38:25.073Z,7.93
2023-12-14T00:39:27.273Z,9.88
2023-12-14T00:40:29.521Z,9.15
2023-12-14T00:41:31.847Z,12.50
2023-12-14T00:42:34.314Z,11.40
2023-12-14T00:43:37.310Z,6.93
2023-12-14T00:44:39.523Z,11.52
2023-12-14T00:45:42.588Z,10.93
2023-12-14T00:46:44.901Z,9.27
2023-12-14T00:47:47.254Z,14.60
2023-12-14T00:48:49.519Z,9.38
2023-12-14T00:49:51.796Z,7.25
2023-12-14T00:50:54.050Z,8.82
2023-12-14T00:51:56.264Z,8.27
2023-12-14T00:52:58.481Z,8.40
2023-12-14T00:54:00.700Z,9.10
2023-12-14T00:55:02.915Z,7.78
2023-12-14T00:56:08.226Z,7.78
2023-12-14T00:57:10.529Z,10.90
2023-12-14T00:58:16.070Z,9.00
2023-12-14T00:59:18.392Z,10.60
2023-12-14T01:00:20.700Z,13.55
2023-12-14T01:01:22.936Z,10.05
2023-12-14T01:02:25.187Z,11.02
2023-12-14T01:03:27.491Z,9.30
2023-12-14T01:04:29.757Z,8.82
2023-12-14T01:05:32.106Z,12.98
2023-12-14T01:06:34.309Z,12.98
2023-12-14T01:07:36.697Z,8.00
2023-12-14T01:08:57.236Z,6.80
2023-12-14T01:10:02.236Z,12.55
2023-12-14T01:11:04.636Z,8.70
2023-12-14T01:12:07.062Z,8.88
2023-12-14T01:13:09.288Z,6.40
2023-12-14T01:14:11.602Z,8.45
2023-12-14T01:15:13.931Z,7.70
2023-12-14T01:16:16.178Z,7.10
2023-12-14T01:17:18.348Z,8.75
2023-12-14T01:18:20.716Z,8.85
2023-12-14T01:19:23.180Z,8.25
2023-12-14T01:20:25.456Z,11.07
2023-12-14T01:21:58.438Z,5.72
2023-12-14T01:23:00.875Z,7.93
2023-12-14T01:24:03.274Z,10.40
2023-12-14T01:25:05.826Z,8.68
2023-12-14T01:26:08.259Z,6.70
2023-12-14T01:27:11.230Z,8.05
2023-12-14T01:28:15.090Z,6.22
2023-12-14T01:29:17.360Z,7.40
2023-12-14T01:30:19.643Z,8.35
2023-12-14T01:31:25.249Z,6.15
2023-12-14T01:32:27.507Z,9.30
2023-12-14T01:33:29.864Z,8.65
2023-12-14T01:34:32.138Z,5.20
2023-12-14T01:35:34.478Z,6.18
2023-12-14T01:36:36.669Z,7.20
2023-12-14T01:37:38.912Z,7.18
2023-12-14T01:38:41.121Z,9.23
2023-12-14T01:39:43.464Z,5.82
2023-12-14T01:40:45.709Z,10.38
2023-12-14T01:41:48.090Z,8.88
2023-12-14T01:42:50.496Z,7.50
2023-12-14T01:43:52.687Z,8.05
2023-12-14T01:44:54.974Z,9.10
2023-12-14T01:45:57.233Z,13.15
2023-12-14T01:46:59.512Z,13.50
2023-12-14T01:48:01.972Z,6.50
2023-12-14T01:49:04.387Z,9.10
2023-12-14T01:50:07.203Z,10.15
2023-12-14T01:51:09.411Z,10.68
2023-12-14T01:52:11.601Z,8.68
2023-12-14T01:53:14.134Z,7.55
2023-12-14T01:54:16.398Z,8.95
2023-12-14T01:55:18.674Z,8.27
2023-12-14T01:56:20.935Z,7.30
2023-12-14T01:57:23.233Z,8.63
2023-12-14T01:58:27.472Z,8.05
2023-12-14T01:59:29.799Z,7.53
2023-12-14T02:00:40.536Z,10.98
2023-12-14T02:01:47.764Z,9.30
2023-12-14T02:02:50.031Z,11.32
2023-12-14T02:03:53.857Z,10.23
2023-12-14T02:04:56.194Z,13.18
2023-12-14T02:05:59.100Z,10.02
2023-12-14T02:07:01.731Z,6.60
2023-12-14T02:08:04.046Z,9.98
2023-12-14T02:09:06.453Z,10.18
2023-12-14T02:10:09.024Z,11.13
2023-12-14T02:11:11.834Z,10.02
2023-12-14T02:12:14.077Z,12.32
2023-12-14T02:13:16.279Z,11.75
2023-12-14T02:14:18.486Z,9.52
2023-12-14T02:15:21.350Z,10.00
2023-12-14T02:16:23.721Z,9.45
2023-12-14T02:17:25.887Z,9.68
2023-12-14T02:18:28.164Z,11.80
2023-12-14T02:19:30.494Z,8.93
2023-12-14T02:20:33.710Z,8.73
2023-12-14T02:21:35.881Z,9.07
2023-12-14T02:22:54.786Z,9.95
2023-12-14T02:23:57.136Z,8.75
2023-12-14T02:24:59.392Z,8.30
2023-12-14T02:26:01.971Z,12.02
2023-12-14T02:27:04.608Z,11.35
2023-12-14T02:28:06.880Z,13.32
2023-12-14T02:29:09.260Z,11.60
2023-12-14T02:30:13.019Z,11.20
2023-12-14T02:31:15.347Z,10.23
2023-12-14T02:32:17.658Z,9.30
2023-12-14T02:33:19.957Z,13.18
2023-12-14T02:34:22.302Z,18.65
2023-12-14T02:35:24.714Z,14.45
2023-12-14T02:36:26.957Z,15.27
2023-12-14T02:37:29.204Z,9.15
2023-12-14T02:38:31.557Z,9.60
2023-12-14T02:39:33.856Z,11.23
2023-12-14T02:40:36.276Z,7.22
2023-12-14T02:41:38.549Z,9.25
2023-12-14T02:42:40.911Z,11.45
2023-12-14T02:43:43.104Z,6.15
2023-12-14T02:44:45.274Z,11.00
2023-12-14T02:45:47.493Z,9.35
2023-12-14T02:46:49.712Z,10.68
2023-12-14T02:47:53.159Z,6.80
2023-12-14T02:48:55.434Z,8.43
2023-12-14T02:49:57.658Z,8.27
2023-12-14T02:51:01.419Z,8.70
2023-12-14T02:52:03.937Z,9.57
2023-12-14T02:53:06.114Z,10.57
2023-12-14T02:54:08.313Z,8.35
2023-12-14T02:55:10.549Z,5.55
2023-12-14T02:56:13.094Z,5.82
2023-12-14T02:57:15.332Z,8.05
2023-12-14T02:58:19.760Z,6.50
2023-12-14T02:59:21.965Z,9.52
2023-12-14T03:02:10.786Z,8.27
2023-12-14T03:03:13.311Z,6.60
2023-12-14T03:04:15.489Z,10.75
2023-12-14T03:05:17.853Z,10.05
2023-12-14T03:06:20.158Z,7.40
2023-12-14T03:07:22.451Z,11.35
2023-12-14T03:08:24.706Z,9.13
2023-12-14T03:09:26.941Z,9.75
2023-12-14T03:10:29.101Z,9.63
2023-12-14T03:11:31.478Z,8.30
2023-12-14T03:12:34.113Z,7.72
2023-12-14T03:13:36.399Z,7.60
2023-12-14T03:14:38.865Z,8.73
2023-12-14T03:15:43.708Z,8.38
2023-12-14T03:16:45.924Z,7.07
2023-12-14T03:17:48.197Z,10.40
2023-12-14T03:18:54.039Z,10.35
2023-12-14T03:19:56.359Z,8.75
2023-12-14T03:20:58.972Z,12.88
2023-12-14T03:22:01.222Z,13.02
2023-12-14T03:23:03.505Z,9.73
2023-12-14T03:24:05.823Z,10.18
2023-12-14T03:25:08.926Z,8.63
2023-12-14T03:26:11.346Z,9.20
2023-12-14T03:27:13.645Z,12.63
2023-12-14T03:28:15.842Z,8.95
2023-12-14T03:29:18.106Z,7.85
2023-12-14T03:30:20.320Z,9.02
2023-12-14T03:31:22.617Z,8.52
2023-12-14T03:32:24.983Z,8.85
2023-12-14T03:33:27.388Z,8.88
2023-12-14T03:34:29.970Z,8.18
2023-12-14T03:35:32.223Z,9.15
2023-12-14T03:36:34.409Z,8.90
2023-12-14T03:37:36.981Z,9.85
2023-12-14T03:38:39.198Z,11.43
2023-12-14T03:39:41.415Z,11.10
2023-12-14T03:40:43.617Z,9.70
2023-12-14T03:41:46.206Z,12.70
2023-12-14T03:42:48.616Z,13.82
2023-12-14T03:43:50.841Z,13.85
2023-12-14T03:44:53.354Z,15.48
2023-12-14T03:45:55.552Z,15.13
2023-12-14T03:46:59.051Z,14.50
2023-12-14T03:48:01.370Z,15.70
2023-12-14T03:49:04.873Z,17.95
2023-12-14T03:50:07.874Z,16.50
2023-12-14T03:51:10.228Z,21.63
2023-12-14T03:52:12.527Z,18.02
2023-12-14T03:53:14.844Z,10.65
2023-12-14T03:54:17.141Z,14.55
2023-12-14T03:55:19.643Z,11.40
2023-12-14T03:56:21.899Z,12.77
2023-12-14T03:57:24.141Z,16.10
2023-12-14T03:58:26.334Z,13.10
2023-12-14T03:59:28.610Z,14.25
2023-12-14T04:00:30.964Z,14.73
2023-12-14T04:01:34.509Z,10.65
2023-12-14T04:02:37.036Z,15.40
2023-12-14T04:03:39.336Z,11.43
2023-12-14T04:04:41.583Z,11.50
2023-12-14T04:05:45.300Z,12.40
2023-12-14T04:06:47.497Z,10.45
2023-12-14T04:07:49.795Z,9.13
2023-12-14T04:08:52.033Z,12.00
2023-12-14T04:09:54.292Z,15.32
2023-12-14T04:10:56.500Z,11.48
2023-12-14T04:11:58.727Z,11.55
2023-12-14T04:13:00.927Z,11.05
2023-12-14T04:14:03.171Z,15.48
2023-12-14T04:15:07.010Z,11.18
2023-12-14T04:16:09.337Z,13.50
2023-12-14T04:17:11.836Z,14.40
2023-12-14T04:18:14.152Z,13.25
2023-12-14T04:19:16.518Z,14.20
2023-12-14T04:20:18.797Z,20.05
2023-12-14T04:21:21.042Z,12.43
2023-12-14T04:22:23.264Z,11.70
2023-12-14T04:23:25.636Z,12.25
2023-12-14T04:24:27.965Z,13.70
2023-12-14T04:25:30.181Z,16.60
2023-12-14T04:26:32.616Z,18.60
2023-12-14T04:27:34.781Z,15.35
2023-12-14T04:28:37.244Z,16.08
2023-12-14T04:29:39.536Z,24.25
2023-12-14T04:30:41.749Z,20.50
2023-12-14T04:31:44.042Z,22.17
2023-12-14T04:32:47.590Z,14.70
2023-12-14T04:33:49.909Z,14.25
2023-12-14T04:34:52.201Z,14.07
2023-12-14T04:35:54.462Z,18.65
2023-12-14T04:36:58.784Z,16.33
2023-12-14T04:38:01.079Z,20.67
2023-12-14T04:39:03.326Z,16.98
2023-12-14T04:40:06.173Z,20.35
2023-12-14T04:41:08.530Z,16.90
2023-12-14T04:42:10.826Z,25.65
2023-12-14T04:43:13.814Z,21.77
2023-12-14T04:44:16.072Z,24.05
2023-12-14T04:45:20.077Z,28.00
2023-12-14T04:46:22.283Z,19.63
2023-12-14T04:47:25.126Z,17.10
2023-12-14T04:48:27.383Z,14.88
2023-12-14T04:49:29.733Z,17.45
2023-12-14T04:50:31.951Z,18.60
2023-12-14T04:51:34.184Z,21.95
2023-12-14T04:52:36.685Z,19.50
2023-12-14T04:53:39.170Z,15.45
2023-12-14T04:54:43.124Z,17.55
2023-12-14T04:55:46.167Z,14.02
2023-12-14T04:56:48.769Z,17.50
2023-12-14T04:57:50.992Z,18.00
2023-12-14T04:58:53.277Z,14.75
2023-12-14T04:59:55.520Z,15.95
2023-12-14T05:00:57.831Z,25.60
2023-12-14T05:02:00.122Z,22.20
2023-12-14T05:03:02.449Z,27.20
2023-12-14T05:04:04.753Z,23.50
2023-12-14T05:05:07.506Z,27.58
2023-12-14T05:06:09.858Z,22.13
2023-12-14T05:07:12.194Z,23.55
2023-12-14T05:08:14.521Z,24.48
2023-12-14T05:09:16.778Z,25.08
2023-12-14T05:10:18.936Z,19.67
2023-12-14T05:11:21.300Z,21.27
2023-12-14T05:12:25.005Z,22.60
2023-12-14T05:13:27.210Z,23.88
2023-12-14T05:14:30.558Z,28.23
2023-12-14T05:15:32.825Z,28.25
2023-12-14T05:16:35.063Z,21.30
2023-12-14T05:17:37.938Z,27.58
2023-12-14T05:18:40.906Z,31.02
2023-12-14T05:19:43.138Z,22.40
2023-12-14T05:20:46.782Z,23.20
2023-12-14T05:21:49.009Z,22.40
2023-12-14T05:22:51.249Z,17.83
2023-12-14T05:23:54.502Z,17.27
2023-12-14T05:24:56.739Z,20.77
2023-12-14T05:25:58.987Z,21.65
2023-12-14T05:27:01.155Z,22.60
2023-12-14T05:28:03.423Z,17.33
2023-12-14T05:29:05.646Z,16.83
2023-12-14T05:30:08.524Z,22.10
2023-12-14T05:31:10.839Z,15.38
2023-12-14T05:32:13.491Z,19.15
2023-12-14T05:33:15.882Z,18.88
2023-12-14T05:34:18.158Z,15.35
2023-12-14T05:35:20.546Z,17.08
2023-12-14T05:36:22.828Z,16.73
2023-12-14T05:37:36.137Z,17.70
2023-12-14T05:38:42.181Z,22.85
2023-12-14T05:39:46.220Z,17.35
2023-12-14T05:40:48.579Z,20.00
2023-12-14T05:41:51.140Z,18.55
2023-12-14T05:42:53.302Z,23.33
2023-12-14T05:43:55.537Z,28.27
2023-12-14T05:44:57.787Z,24.42
2023-12-14T05:46:00.527Z,22.85
2023-12-14T05:47:02.897Z,19.45
2023-12-14T05:48:06.666Z,18.50
2023-12-14T05:49:09.030Z,18.00
2023-12-14T05:50:11.608Z,16.52
2023-12-14T05:51:13.824Z,17.48
2023-12-14T05:52:16.003Z,17.55
2023-12-14T05:53:18.286Z,19.45
2023-12-14T05:54:21.727Z,21.05
2023-12-14T05:55:24.450Z,26.88
2023-12-14T05:56:27.244Z,29.67
2023-12-14T05:57:29.437Z,16.67
2023-12-14T05:58:31.684Z,18.40
2023-12-14T05:59:34.091Z,23.00
2023-12-14T06:00:37.068Z,26.10
2023-12-14T06:01:39.360Z,24.40
2023-12-14T06:02:42.026Z,27.35
2023-12-14T06:03:44.771Z,25.02
2023-12-14T06:04:47.153Z,22.52
2023-12-14T06:05:49.443Z,24.77
2023-12-14T06:06:51.691Z,27.27
2023-12-14T06:07:53.903Z,24.70
2023-12-14T06:08:56.145Z,23.38
2023-12-14T06:09:58.324Z,31.23
2023-12-14T06:11:00.545Z,29.08
2023-12-14T06:12:04.078Z,25.80
2023-12-14T06:13:06.234Z,28.63
2023-12-14T06:14:08.467Z,22.45
2023-12-14T06:15:12.036Z,23.15
2023-12-14T06:16:14.396Z,27.30
2023-12-14T06:17:17.039Z,20.35
2023-12-14T06:18:19.423Z,19.13
2023-12-14T06:19:21.799Z,29.13
2023-12-14T06:20:24.341Z,19.92
2023-12-14T06:21:29.331Z,19.90
2023-12-14T06:22:31.521Z,19.45
2023-12-14T06:23:33.724Z,19.10
2023-12-14T06:24:35.886Z,19.92
2023-12-14T06:25:38.068Z,20.55
2023-12-14T06:26:45.090Z,18.35
2023-12-14T06:27:47.270Z,23.85
2023-12-14T06:28:49.574Z,21.88
2023-12-14T06:29:51.902Z,23.35
2023-12-14T06:30:54.158Z,20.33
2023-12-14T06:31:56.509Z,21.70
2023-12-14T06:32:58.916Z,22.40
2023-12-14T06:34:04.472Z,30.75
2023-12-14T06:35:07.299Z,25.30
2023-12-14T06:36:09.819Z,23.52
2023-12-14T06:37:12.138Z,22.80
2023-12-14T06:38:14.376Z,31.83
2023-12-14T06:39:19.373Z,28.23
2023-12-14T06:40:22.711Z,30.48
2023-12-14T06:41:25.713Z,23.98
2023-12-14T06:42:29.075Z,24.25
2023-12-14T06:43:31.380Z,22.20
2023-12-14T06:44:34.756Z,23.60
2023-12-14T06:45:39.262Z,19.13
2023-12-14T06:46:41.516Z,22.10
2023-12-14T06:47:44.630Z,28.08
2023-12-14T06:48:47.367Z,29.42
2023-12-14T06:49:51.286Z,30.38
2023-12-14T06:50:55.859Z,25.33
2023-12-14T06:51:58.749Z,26.10
2023-12-14T06:53:01.060Z,22.20
2023-12-14T06:54:03.329Z,20.13
2023-12-14T06:55:05.686Z,25.65
2023-12-14T06:56:12.183Z,24.17
2023-12-14T06:57:14.752Z,24.50
2023-12-14T06:58:16.924Z,25.02
2023-12-14T06:59:19.218Z,21.75
2023-12-14T07:00:21.541Z,20.10
2023-12-14T07:01:23.810Z,22.30
2023-12-14T07:02:26.153Z,23.95
2023-12-14T07:03:28.393Z,45.17
2023-12-14T07:04:30.795Z,33.08
2023-12-14T07:05:34.136Z,41.50
2023-12-14T07:06:36.754Z,38.72
2023-12-14T07:07:39.067Z,33.35
2023-12-14T07:08:42.085Z,34.03
2023-12-14T07:09:47.068Z,24.70
2023-12-14T07:10:49.249Z,25.17
2023-12-14T07:11:51.458Z,28.52
2023-12-14T07:12:53.705Z,26.30
2023-12-14T07:13:55.943Z,31.60
2023-12-14T07:14:58.253Z,29.30
2023-12-14T07:16:00.700Z,37.38
2023-12-14T07:17:03.079Z,38.65
2023-12-14T07:18:05.470Z,33.42
2023-12-14T07:19:07.806Z,36.40
2023-12-14T07:20:11.288Z,38.47
2023-12-14T07:21:13.816Z,32.97
2023-12-14T07:22:16.033Z,35.83
2023-12-14T07:23:18.329Z,30.38
2023-12-14T07:24:20.688Z,31.30
2023-12-14T07:25:23.025Z,25.85
2023-12-14T07:26:25.279Z,32.20
2023-12-14T07:27:27.550Z,27.50
2023-12-14T07:28:30.156Z,27.05
2023-12-14T07:29:32.452Z,28.00
2023-12-14T07:30:34.694Z,32.88
2023-12-14T07:31:36.975Z,43.88
2023-12-14T07:32:39.437Z,33.35
2023-12-14T07:33:41.781Z,27.25
2023-12-14T07:34:45.419Z,28.77
2023-12-14T07:35:47.749Z,32.55
2023-12-14T07:36:49.978Z,36.25
2023-12-14T07:37:52.185Z,33.25
2023-12-14T07:38:55.677Z,33.17
2023-12-14T07:39:59.076Z,28.40
2023-12-14T07:41:01.257Z,28.52
2023-12-14T07:42:03.660Z,31.08
2023-12-14T07:43:06.096Z,31.50
2023-12-14T07:44:08.361Z,38.75
2023-12-14T07:45:11.466Z,38.15
2023-12-14T07:46:13.641Z,39.25
2023-12-14T07:47:16.018Z,33.03
2023-12-14T07:48:18.421Z,29.60
2023-12-14T07:49:23.368Z,33.30
2023-12-14T07:50:26.631Z,26.30
2023-12-14T07:51:28.956Z,31.10
2023-12-14T07:52:31.159Z,33.75
2023-12-14T07:53:33.358Z,33.53
2023-12-14T07:54:36.342Z,35.95
2023-12-14T07:55:38.582Z,39.28
2023-12-14T07:56:40.814Z,37.40
2023-12-14T07:57:43.079Z,38.80
2023-12-14T07:58:45.345Z,35.50
2023-12-14T07:59:47.981Z,38.03
2023-12-14T08:00:50.200Z,31.85
2023-12-14T08:01:52.432Z,25.88
2023-12-14T08:02:54.632Z,26.35
2023-12-14T08:03:56.910Z,24.90
2023-12-14T08:04:59.206Z,34.83
2023-12-14T08:06:01.485Z,28.80
2023-12-14T08:07:03.794Z,33.20
2023-12-14T08:08:06.094Z,34.42
2023-12-14T08:09:08.482Z,40.78
2023-12-14T08:10:11.286Z,38.38
2023-12-14T08:11:13.642Z,28.10
2023-12-14T08:12:15.960Z,32.72
2023-12-14T08:13:18.278Z,25.15
2023-12-14T08:14:20.586Z,24.30
2023-12-14T08:15:22.882Z,30.25
2023-12-14T08:16:25.149Z,26.48
2023-12-14T08:17:29.160Z,25.63
2023-12-14T08:18:31.658Z,26.85
2023-12-14T08:19:33.923Z,29.10
2023-12-14T08:20:36.105Z,23.92
2023-12-14T08:21:38.282Z,25.33
2023-12-14T08:22:45.415Z,28.67
2023-12-14T08:23:47.838Z,31.73
2023-12-14T08:24:50.272Z,24.48
2023-12-14T08:25:52.432Z,32.75
2023-12-14T08:26:54.764Z,26.83
2023-12-14T08:27:57.004Z,32.30
2023-12-14T08:28:59.832Z,41.00
2023-12-14T08:30:02.114Z,27.48
2023-12-14T08:31:05.386Z,34.45
2023-12-14T08:32:07.804Z,45.72
2023-12-14T08:33:10.109Z,37.88
2023-12-14T08:34:12.585Z,36.60
2023-12-14T08:35:15.165Z,29.38
2023-12-14T08:36:17.987Z,30.83
2023-12-14T08:37:20.350Z,28.33
2023-12-14T08:38:22.644Z,32.50
2023-12-14T08:39:24.844Z,43.92
2023-12-14T08:40:27.080Z,35.65
2023-12-14T08:41:29.274Z,29.20
2023-12-14T08:42:31.983Z,25.42
2023-12-14T08:43:34.243Z,38.13
2023-12-14T08:44:40.022Z,30.60
2023-12-14T08:45:42.340Z,28.55
2023-12-14T08:46:47.286Z,31.20
2023-12-14T08:47:49.593Z,25.90
2023-12-14T08:48:52.742Z,30.02
2023-12-14T08:49:55.163Z,25.20
2023-12-14T08:50:57.522Z,29.77
2023-12-14T08:51:59.753Z,22.67
2023-12-14T08:53:02.408Z,22.92
2023-12-14T08:54:05.416Z,21.17
2023-12-14T08:55:08.688Z,24.80
2023-12-14T08:56:11.009Z,30.67
2023-12-14T08:57:13.214Z,21.83
2023-12-14T08:58:15.470Z,25.40
2023-12-14T08:59:17.858Z,20.42
2023-12-14T09:00:20.374Z,28.40
2023-12-14T09:01:23.837Z,24.63
2023-12-14T09:02:26.188Z,23.20
2023-12-14T09:03:28.616Z,25.88
2023-12-14T09:04:30.951Z,33.42
2023-12-14T09:05:33.840Z,27.88
2023-12-14T09:06:36.152Z,18.92
2023-12-14T09:07:38.369Z,23.55
2023-12-14T09:08:40.850Z,21.65
2023-12-14T09:09:43.046Z,20.70
2023-12-14T09:10:45.538Z,18.92
2023-12-14T09:11:47.732Z,23.70
2023-12-14T09:12:49.948Z,24.52
2023-12-14T09:13:52.667Z,22.30
2023-12-14T09:14:54.873Z,22.25
2023-12-14T09:15:57.128Z,22.67
2023-12-14T09:16:59.447Z,20.88
2023-12-14T09:18:01.968Z,25.20
2023-12-14T09:19:04.309Z,19.73
2023-12-14T09:20:07.371Z,22.42
2023-12-14T09:21:09.623Z,18.55
2023-12-14T09:22:11.817Z,17.30
2023-12-14T09:23:14.153Z,18.83
2023-12-14T09:24:16.898Z,20.58
2023-12-14T09:25:20.241Z,26.95
2023-12-14T09:26:22.659Z,22.83
2023-12-14T09:27:25.029Z,24.55
2023-12-14T09:28:27.648Z,19.35
2023-12-14T09:29:29.977Z,25.15
2023-12-14T09:30:32.419Z,20.80
2023-12-14T09:31:34.805Z,21.38
2023-12-14T09:32:37.382Z,22.23
2023-12-14T09:33:40.130Z,21.80
2023-12-14T09:34:44.234Z,18.35
2023-12-14T09:35:47.187Z,22.67
2023-12-14T09:36:49.517Z,19.48
2023-12-14T09:37:51.820Z,23.33
2023-12-14T09:38:54.391Z,19.48
2023-12-14T09:39:56.597Z,19.70
2023-12-14T09:40:58.862Z,17.08
2023-12-14T09:42:05.484Z,20.17
2023-12-14T09:43:09.875Z,17.73
2023-12-14T09:44:12.261Z,17.95
2023-12-14T09:45:14.579Z,18.67
2023-12-14T09:46:18.840Z,19.80
2023-12-14T09:47:21.115Z,21.73
2023-12-14T09:48:23.603Z,18.33
2023-12-14T09:49:30.182Z,20.20
2023-12-14T09:50:33.035Z,19.08
2023-12-14T09:51:35.304Z,17.48
2023-12-14T09:52:37.604Z,17.25
2023-12-14T09:53:39.796Z,18.75
2023-12-14T09:54:42.043Z,21.77
2023-12-14T09:55:44.245Z,16.50
2023-12-14T09:56:47.977Z,21.75
2023-12-14T09:57:50.199Z,20.00
2023-12-14T09:58:52.417Z,23.42
2023-12-14T09:59:55.913Z,22.98
2023-12-14T10:00:59.280Z,20.55
2023-12-14T10:02:14.874Z,24.42
2023-12-14T10:03:21.516Z,24.30
2023-12-14T10:04:24.593Z,22.75
2023-12-14T10:05:28.914Z,21.13
2023-12-14T10:06:31.324Z,19.98
2023-12-14T10:07:33.784Z,21.35
2023-12-14T10:08:36.310Z,18.67
2023-12-14T10:09:39.097Z,22.05
2023-12-14T10:10:41.538Z,20.67
2023-12-14T10:11:44.856Z,16.67
2023-12-14T10:12:54.366Z,22.00
2023-12-14T10:13:57.053Z,17.00
2023-12-14T10:15:06.800Z,19.80
2023-12-14T10:16:09.055Z,15.90
2023-12-14T10:17:33.679Z,19.13
2023-12-14T10:18:37.431Z,15.32
2023-12-14T10:19:43.638Z,16.60
2023-12-14T10:20:48.128Z,17.13
2023-12-14T10:21:51.263Z,16.83
2023-12-14T10:22:54.272Z,22.58
2023-12-14T10:23:57.634Z,17.67
2023-12-14T10:25:01.969Z,21.02
2023-12-14T10:26:05.848Z,18.58
2023-12-14T10:27:08.602Z,15.57
2023-12-14T10:28:17.758Z,21.60
2023-12-14T10:29:20.122Z,18.58
2023-12-14T10:30:22.515Z,17.95
2023-12-14T10:31:27.062Z,13.93
2023-12-14T10:32:30.549Z,20.98
2023-12-14T10:33:33.022Z,23.05
2023-12-14T10:34:36.411Z,15.90
2023-12-14T10:35:38.642Z,16.83
2023-12-14T10:36:44.798Z,16.95
2023-12-14T10:37:50.342Z,18.85
2023-12-14T10:38:54.198Z,17.38
2023-12-14T10:39:56.943Z,17.25
2023-12-14T10:40:59.580Z,18.13
2023-12-14T10:42:14.944Z,13.88
2023-12-14T10:43:42.706Z,18.13
2023-12-14T10:45:05.057Z,20.73
2023-12-14T10:46:08.602Z,16.40
2023-12-14T10:47:11.520Z,14.27
2023-12-14T10:48:14.882Z,17.20
2023-12-14T10:49:17.378Z,15.63
2023-12-14T10:50:20.523Z,14.00
2023-12-14T10:51:27.138Z,17.38
2023-12-14T10:52:31.386Z,14.00
2023-12-14T10:53:34.486Z,13.13
2023-12-14T10:54:39.467Z,15.27
2023-12-14T10:55:44.851Z,14.73
2023-12-14T10:56:47.119Z,15.45
2023-12-14T10:57:50.662Z,13.93
2023-12-14T10:58:56.166Z,13.98
2023-12-14T11:00:00.488Z,16.13
2023-12-14T11:01:03.037Z,12.63
2023-12-14T11:02:12.681Z,13.90
2023-12-14T11:03:15.821Z,13.75
2023-12-14T11:04:18.288Z,13.07
2023-12-14T11:05:30.235Z,14.88
2023-12-14T11:06:34.429Z,13.60
2023-12-14T11:07:58.657Z,15.45
2023-12-14T11:09:07.669Z,13.82
2023-12-14T11:10:10.763Z,12.57
2023-12-14T11:11:14.428Z,12.10
2023-12-14T11:12:21.684Z,10.88
2023-12-14T11:13:25.072Z,18.60
2023-12-14T11:14:28.496Z,12.63
2023-12-14T11:15:35.413Z,21.63
2023-12-14T11:16:49.239Z,8.95
2023-12-14T11:18:26.109Z,10.80
2023-12-14T11:19:30.801Z,13.88
2023-12-14T11:20:48.073Z,11.65
2023-12-14T11:22:10.990Z,8.88
2023-12-14T11:24:20.513Z,12.18
2023-12-14T11:25:32.587Z,12.98
2023-12-14T11:26:41.727Z,12.52
2023-12-14T11:27:45.311Z,10.35
2023-12-14T11:28:49.757Z,8.35
2023-12-14T11:29:52.186Z,9.48
2023-12-14T11:30:56.934Z,8.57
2023-12-14T11:31:59.758Z,7.53
2023-12-14T11:33:01.970Z,11.02
2023-12-14T11:34:05.549Z,8.90
2023-12-14T11:35:09.398Z,10.05
2023-12-14T11:36:15.691Z,11.55
2023-12-14T11:37:18.700Z,8.15
2023-12-14T11:38:22.779Z,8.23
2023-12-14T11:39:25.909Z,11.32
2023-12-14T11:40:29.003Z,11.85
2023-12-14T11:41:32.662Z,11.35
2023-12-14T11:42:34.963Z,12.70
2023-12-14T11:43:45.381Z,10.35
2023-12-14T11:44:48.336Z,12.52
2023-12-14T11:45:50.871Z,10.23
2023-12-14T11:46:53.294Z,12.07
2023-12-14T11:47:55.604Z,13.05
2023-12-14T11:48:58.575Z,10.77
2023-12-14T11:50:00.936Z,12.95
2023-12-14T11:51:03.423Z,13.45
2023-12-14T11:52:06.004Z,11.85
2023-12-14T11:53:09.166Z,11.50
2023-12-14T11:54:11.429Z,13.25
2023-12-14T11:55:14.048Z,14.57
2023-12-14T11:56:19.089Z,11.85
2023-12-14T11:57:21.361Z,18.45
2023-12-14T11:58:25.993Z,17.05
2023-12-14T11:59:28.255Z,12.15
2023-12-14T12:00:31.942Z,12.45
2023-12-14T12:01:35.079Z,15.40
2023-12-14T12:02:37.338Z,14.35
2023-12-14T12:03:39.511Z,14.65
2023-12-14T12:04:52.733Z,14.60
2023-12-14T12:05:55.182Z,12.75
2023-12-14T12:07:05.408Z,14.00
2023-12-14T12:08:08.181Z,12.13
2023-12-14T12:09:11.915Z,13.88
2023-12-14T12:10:14.207Z,15.27
2023-12-14T12:11:21.438Z,16.92
2023-12-14T12:12:23.728Z,13.38
2023-12-14T12:13:26.653Z,12.68
2023-12-14T12:14:29.516Z,9.52
2023-12-14T12:15:36.909Z,12.38
2023-12-14T12:16:39.519Z,14.43
2023-12-14T12:17:42.020Z,20.05
2023-12-14T12:18:44.336Z,31.35
2023-12-14T12:19:46.885Z,15.48
2023-12-14T12:20:51.674Z,12.85
2023-12-14T12:21:53.874Z,14.57
2023-12-14T12:22:56.100Z,14.85
2023-12-14T12:23:58.355Z,14.23
2023-12-14T12:25:08.780Z,12.02
2023-12-14T12:26:17.502Z,15.45
2023-12-14T12:27:19.745Z,17.35
2023-12-14T12:28:22.017Z,10.48
2023-12-14T12:29:24.362Z,13.82
2023-12-14T12:30:26.725Z,12.75
2023-12-14T12:31:28.921Z,15.13
2023-12-14T12:32:31.143Z,14.98
2023-12-14T12:33:38.561Z,15.13
2023-12-14T12:34:40.998Z,12.68
2023-12-14T12:35:43.216Z,14.68
2023-12-14T12:36:45.466Z,18.38
2023-12-14T12:37:47.808Z,14.73
2023-12-14T12:38:50.040Z,17.48
2023-12-14T12:39:52.276Z,15.25
2023-12-14T12:40:56.727Z,15.10
2023-12-14T12:41:58.940Z,15.77
2023-12-14T12:43:01.136Z,14.43
2023-12-14T12:44:06.821Z,15.25
2023-12-14T12:45:09.417Z,16.25
2023-12-14T12:46:11.633Z,15.63
2023-12-14T12:47:14.261Z,21.77
2023-12-14T12:48:16.693Z,20.63
2023-12-14T12:49:19.049Z,20.33
2023-12-14T12:50:24.471Z,19.08
2023-12-14T12:51:27.991Z,16.35
2023-12-14T12:52:30.221Z,14.68
2023-12-14T12:53:33.801Z,14.30
2023-12-14T12:54:36.313Z,15.48
2023-12-14T12:55:38.575Z,14.93
2023-12-14T12:56:41.183Z,14.50
2023-12-14T12:57:43.659Z,14.18
2023-12-14T12:58:45.963Z,18.33
2023-12-14T12:59:48.187Z,15.93
2023-12-14T13:00:50.438Z,16.05
2023-12-14T13:01:53.077Z,14.98
2023-12-14T13:02:55.318Z,16.95
2023-12-14T13:03:58.165Z,15.88
2023-12-14T13:05:00.990Z,17.15
2023-12-14T13:06:04.242Z,17.17
2023-12-14T13:07:06.435Z,16.67
2023-12-14T13:08:08.692Z,14.88
2023-12-14T13:09:11.301Z,15.80
2023-12-14T13:10:21.447Z,15.73
2023-12-14T13:11:31.291Z,17.25
2023-12-14T13:12:33.772Z,17.52
2023-12-14T13:13:35.996Z,21.15
2023-12-14T13:14:38.236Z,14.05
2023-12-14T13:15:40.495Z,15.35
2023-12-14T13:16:44.008Z,15.38
2023-12-14T13:17:46.356Z,18.60
2023-12-14T13:18:48.652Z,19.10
2023-12-14T13:19:51.011Z,17.55
2023-12-14T13:20:53.261Z,14.20
2023-12-14T13:21:57.726Z,18.73
2023-12-14T13:23:00.010Z,16.15
2023-12-14T13:24:03.530Z,15.35
2023-12-14T13:25:06.146Z,15.02
2023-12-14T13:26:08.416Z,13.85
2023-12-14T13:27:10.849Z,15.02
2023-12-14T13:28:16.621Z,15.75
2023-12-14T13:29:19.731Z,19.02
2023-12-14T13:30:23.767Z,13.30
2023-12-14T13:31:26.093Z,12.55
2023-12-14T13:32:28.366Z,17.95
2023-12-14T13:33:30.850Z,16.63
2023-12-14T13:34:34.104Z,16.08
2023-12-14T13:35:36.371Z,17.95
2023-12-14T13:36:38.626Z,14.10
2023-12-14T13:37:41.104Z,13.50
2023-12-14T13:38:43.494Z,16.85
2023-12-14T13:39:45.662Z,13.85
2023-12-14T13:40:47.849Z,14.68
2023-12-14T13:41:51.154Z,17.02
2023-12-14T13:43:03.173Z,15.88